Meteorología y climatología de Navarra
Datos de la estación - Meteo Navarra

Estación de Irabia GN

Altitud 822 m.


Datos desde el 12/09/2019 hasta el 13/09/2019 en horario solar
Los datos son PROVISIONALES

Anterior Página 1 de 1 Siguiente Descargar: Formato para Excel 2000 o superior   Formato csv   Formato para OpenOffice Calc
Fecha Temperatura Humedad relativa Radiación global Insolación Precipitación Vel. viento 10 m Vel. viento 10 m Dir. viento 10 m
ºC % W/m² s l/m² m/s km/h º
12/09/2019 0:00 8.0 97 - - - - 0.0 - - - - - -
12/09/2019 0:10 8.0 97 - - - - 0.0 - - - - - -
12/09/2019 0:20 7.8 97 - - - - 0.0 - - - - - -
12/09/2019 0:30 7.9 97 - - - - 0.0 - - - - - -
12/09/2019 0:40 7.8 98 - - - - 0.0 - - - - - -
12/09/2019 0:50 7.8 98 - - - - 0.0 - - - - - -
12/09/2019 1:00 7.4 97 - - - - 0.0 - - - - - -
12/09/2019 1:10 7.6 98 - - - - 0.0 - - - - - -
12/09/2019 1:20 7.4 98 - - - - 0.0 - - - - - -
12/09/2019 1:30 7.5 98 - - - - 0.0 - - - - - -
12/09/2019 1:40 7.4 98 - - - - 0.0 - - - - - -
12/09/2019 1:50 7.2 98 - - - - 0.0 - - - - - -
12/09/2019 2:00 7.2 98 - - - - 0.0 - - - - - -
12/09/2019 2:10 7.2 98 - - - - 0.0 - - - - - -
12/09/2019 2:20 7.1 98 - - - - 0.0 - - - - - -
12/09/2019 2:30 6.9 98 - - - - 0.0 - - - - - -
12/09/2019 2:40 6.9 98 - - - - 0.0 - - - - - -
12/09/2019 2:50 6.8 98 - - - - 0.0 - - - - - -
12/09/2019 3:00 6.7 98 - - - - 0.0 - - - - - -
12/09/2019 3:10 6.6 98 - - - - 0.0 - - - - - -
12/09/2019 3:20 6.6 98 - - - - 0.0 - - - - - -
12/09/2019 3:30 6.7 98 - - - - 0.0 - - - - - -
12/09/2019 3:40 6.6 98 - - - - 0.0 - - - - - -
12/09/2019 3:50 6.5 98 - - - - 0.0 - - - - - -
12/09/2019 4:00 6.8 98 - - - - 0.0 - - - - - -
12/09/2019 4:10 6.9 98 - - - - 0.0 - - - - - -
12/09/2019 4:20 6.7 98 - - - - 0.0 - - - - - -
12/09/2019 4:30 6.5 98 - - - - 0.0 - - - - - -
12/09/2019 4:40 6.8 98 - - - - 0.0 - - - - - -
12/09/2019 4:50 6.9 98 - - - - 0.0 - - - - - -
12/09/2019 5:00 6.8 98 - - - - 0.0 - - - - - -
12/09/2019 5:10 6.9 98 - - - - 0.0 - - - - - -
12/09/2019 5:20 6.7 98 - - - - 0.0 - - - - - -
12/09/2019 5:30 6.7 98 - - - - 0.0 - - - - - -
12/09/2019 5:40 6.6 98 - - - - 0.0 - - - - - -
12/09/2019 5:50 6.6 98 - - - - 0.0 - - - - - -
12/09/2019 6:00 6.6 98 - - - - 0.0 - - - - - -
12/09/2019 6:10 6.5 98 - - - - 0.0 - - - - - -
12/09/2019 6:20 6.6 98 - - - - 0.0 - - - - - -
12/09/2019 6:30 6.7 98 - - - - 0.0 - - - - - -
12/09/2019 6:40 6.9 98 - - - - 0.0 - - - - - -
12/09/2019 6:50 6.9 98 - - - - 0.0 - - - - - -
12/09/2019 7:00 6.9 98 - - - - 0.0 - - - - - -
12/09/2019 7:10 7.1 98 - - - - 0.0 - - - - - -
12/09/2019 7:20 7.5 98 - - - - 0.0 - - - - - -
12/09/2019 7:30 7.8 98 - - - - 0.0 - - - - - -
12/09/2019 7:40 8.9 98 - - - - 0.0 - - - - - -
12/09/2019 7:50 10.3 92 - - - - 0.0 - - - - - -
12/09/2019 8:00 11.3 88 - - - - 0.0 - - - - - -
12/09/2019 8:10 11.9 86 - - - - 0.0 - - - - - -
12/09/2019 8:20 12.3 84 - - - - 0.0 - - - - - -
12/09/2019 8:30 12.8 85 - - - - 0.0 - - - - - -
12/09/2019 8:40 13.8 82 - - - - 0.0 - - - - - -
12/09/2019 8:50 14.5 80 - - - - 0.0 - - - - - -
12/09/2019 9:00 15.4 78 - - - - 0.0 - - - - - -
12/09/2019 9:10 16.1 75 - - - - 0.0 - - - - - -
12/09/2019 9:20 16.9 72 - - - - 0.0 - - - - - -
12/09/2019 9:30 17.3 70 - - - - 0.0 - - - - - -
12/09/2019 9:40 17.9 68 - - - - 0.0 - - - - - -
12/09/2019 9:50 18.4 65 - - - - 0.0 - - - - - -
12/09/2019 10:00 18.9 64 - - - - 0.0 - - - - - -
12/09/2019 10:10 19.3 62 - - - - 0.0 - - - - - -
12/09/2019 10:20 19.6 61 - - - - 0.0 - - - - - -
12/09/2019 10:30 19.8 60 - - - - 0.0 - - - - - -
12/09/2019 10:40 20.2 58 - - - - 0.0 - - - - - -
12/09/2019 10:50 20.8 57 - - - - 0.0 - - - - - -
12/09/2019 11:00 21.2 56 - - - - 0.0 - - - - - -
12/09/2019 11:10 21.2 55 - - - - 0.0 - - - - - -
12/09/2019 11:20 21.4 55 - - - - 0.0 - - - - - -
12/09/2019 11:30 21.4 55 - - - - 0.0 - - - - - -
12/09/2019 11:40 20.8 57 - - - - 0.0 - - - - - -
12/09/2019 11:50 20.8 58 - - - - 0.0 - - - - - -
12/09/2019 12:00 21.3 56 - - - - 0.0 - - - - - -
12/09/2019 12:10 21.3 56 - - - - 0.0 - - - - - -
12/09/2019 12:20 21.0 57 - - - - 0.0 - - - - - -
12/09/2019 12:30 20.7 59 - - - - 0.0 - - - - - -
12/09/2019 12:40 20.6 61 - - - - 0.0 - - - - - -
12/09/2019 12:50 20.6 62 - - - - 0.0 - - - - - -
12/09/2019 13:00 20.4 62 - - - - 0.0 - - - - - -
12/09/2019 13:10 20.1 63 - - - - 0.0 - - - - - -
12/09/2019 13:20 20.2 64 - - - - 0.0 - - - - - -
12/09/2019 13:30 20.1 63 - - - - 0.0 - - - - - -
12/09/2019 13:40 20.1 63 - - - - 0.0 - - - - - -
12/09/2019 13:50 19.9 64 - - - - 0.0 - - - - - -
12/09/2019 14:00 19.7 65 - - - - 0.0 - - - - - -
12/09/2019 14:10 19.7 66 - - - - 0.0 - - - - - -
12/09/2019 14:20 19.6 66 - - - - 0.0 - - - - - -
12/09/2019 14:30 19.5 65 - - - - 0.0 - - - - - -
12/09/2019 14:40 19.4 66 - - - - 0.0 - - - - - -
12/09/2019 14:50 19.4 66 - - - - 0.0 - - - - - -
12/09/2019 15:00 19.3 66 - - - - 0.0 - - - - - -
12/09/2019 15:10 19.2 66 - - - - 0.0 - - - - - -
12/09/2019 15:20 19.3 67 - - - - 0.0 - - - - - -
12/09/2019 15:30 19.1 68 - - - - 0.0 - - - - - -
12/09/2019 15:40 19.0 68 - - - - 0.0 - - - - - -
12/09/2019 15:50 18.9 68 - - - - 0.0 - - - - - -
12/09/2019 16:00 18.8 68 - - - - 0.0 - - - - - -
12/09/2019 16:10 18.6 69 - - - - 0.0 - - - - - -
12/09/2019 16:20 18.5 70 - - - - 0.0 - - - - - -
12/09/2019 16:30 18.5 70 - - - - 0.0 - - - - - -
12/09/2019 16:40 18.1 74 - - - - 0.0 - - - - - -
12/09/2019 16:50 17.9 75 - - - - 0.0 - - - - - -
12/09/2019 17:00 17.6 75 - - - - 0.0 - - - - - -
12/09/2019 17:10 17.4 75 - - - - 0.0 - - - - - -
12/09/2019 17:20 17.0 78 - - - - 0.0 - - - - - -
12/09/2019 17:30 16.9 78 - - - - 0.0 - - - - - -
12/09/2019 17:40 16.4 81 - - - - 0.0 - - - - - -
12/09/2019 17:50 16.1 82 - - - - 0.0 - - - - - -
12/09/2019 18:00 15.8 84 - - - - 0.0 - - - - - -
12/09/2019 18:10 15.4 87 - - - - 0.0 - - - - - -
12/09/2019 18:20 15.0 89 - - - - 0.0 - - - - - -
12/09/2019 18:30 14.7 91 - - - - 0.0 - - - - - -
12/09/2019 18:40 14.2 92 - - - - 0.0 - - - - - -
12/09/2019 18:50 13.9 93 - - - - 0.0 - - - - - -
12/09/2019 19:00 13.6 94 - - - - 0.0 - - - - - -
12/09/2019 19:10 13.5 95 - - - - 0.0 - - - - - -
12/09/2019 19:20 13.2 95 - - - - 0.0 - - - - - -
12/09/2019 19:30 13.0 96 - - - - 0.0 - - - - - -
12/09/2019 19:40 12.8 96 - - - - 0.0 - - - - - -
12/09/2019 19:50 12.7 97 - - - - 0.0 - - - - - -
12/09/2019 20:00 12.5 97 - - - - 0.0 - - - - - -
12/09/2019 20:10 12.3 97 - - - - 0.0 - - - - - -
12/09/2019 20:20 12.2 97 - - - - 0.0 - - - - - -
12/09/2019 20:30 12.0 98 - - - - 0.0 - - - - - -
12/09/2019 20:40 11.9 98 - - - - 0.0 - - - - - -
12/09/2019 20:50 11.7 98 - - - - 0.0 - - - - - -
12/09/2019 21:00 11.7 98 - - - - 0.0 - - - - - -
12/09/2019 21:10 11.5 98 - - - - 0.0 - - - - - -
12/09/2019 21:20 11.4 98 - - - - 0.0 - - - - - -
12/09/2019 21:30 11.3 98 - - - - 0.0 - - - - - -
12/09/2019 21:40 11.0 98 - - - - 0.0 - - - - - -
12/09/2019 21:50 10.9 98 - - - - 0.0 - - - - - -
12/09/2019 22:00 10.9 98 - - - - 0.0 - - - - - -
12/09/2019 22:10 10.7 98 - - - - 0.0 - - - - - -
12/09/2019 22:20 10.7 98 - - - - 0.0 - - - - - -
12/09/2019 22:30 10.5 98 - - - - 0.0 - - - - - -
12/09/2019 22:40 10.5 98 - - - - 0.0 - - - - - -
12/09/2019 22:50 10.4 98 - - - - 0.0 - - - - - -
12/09/2019 23:00 10.1 98 - - - - 0.0 - - - - - -
12/09/2019 23:10 10.1 98 - - - - 0.0 - - - - - -
12/09/2019 23:20 10.1 98 - - - - 0.0 - - - - - -
12/09/2019 23:30 9.9 98 - - - - 0.0 - - - - - -
12/09/2019 23:40 9.8 98 - - - - 0.0 - - - - - -
12/09/2019 23:50 9.9 98 - - - - 0.0 - - - - - -
Anterior Página 1 de 1 Siguiente

NOTA: Tipo de datos según el color:
   - Valores diarios o 10 minutos correctos
   - Valores diarios calculados a partir de un número de datos 10 minutos menor que 144 y mayor que 120, o de un número de datos semihorarios menor que 48 y mayor que 40 (caso de las estaciones de Riegos de Navarra y del MARM)
   - Valores diez minutos estimados


Contacto        Enlaces        Aviso legal